createdAt,value
2018-08-03T00:00:07.744Z,3.43
2018-08-03T00:02:35.675Z,3.87
2018-08-03T00:05:03.379Z,4.13
2018-08-03T00:07:31.058Z,4.47
2018-08-03T00:09:58.690Z,4.27
2018-08-03T00:12:26.688Z,4.33
2018-08-03T00:14:54.727Z,4.20
2018-08-03T00:17:22.385Z,4.07
2018-08-03T00:19:50.678Z,4.60
2018-08-03T00:22:18.496Z,4.37
2018-08-03T00:24:46.411Z,3.60
2018-08-03T00:27:14.037Z,4.20
2018-08-03T00:29:42.151Z,3.63
2018-08-03T00:32:09.790Z,4.10
2018-08-03T00:34:37.406Z,4.00
2018-08-03T00:37:05.318Z,3.43
2018-08-03T00:39:32.995Z,4.30
2018-08-03T00:42:01.156Z,3.10
2018-08-03T00:44:28.821Z,3.20
2018-08-03T00:46:57.174Z,4.13
2018-08-03T00:49:24.814Z,4.60
2018-08-03T00:51:52.425Z,4.30
2018-08-03T00:54:20.041Z,4.40
2018-08-03T00:56:48.014Z,4.20
2018-08-03T00:59:16.160Z,3.27
2018-08-03T01:01:43.835Z,4.93
2018-08-03T01:04:11.505Z,4.47
2018-08-03T01:06:39.232Z,5.30
2018-08-03T01:09:09.385Z,4.83
2018-08-03T01:11:37.061Z,4.57
2018-08-03T01:14:04.848Z,4.67
2018-08-03T01:16:36.970Z,4.53
2018-08-03T01:19:05.054Z,4.63
2018-08-03T01:21:32.889Z,4.70
2018-08-03T01:24:01.106Z,4.40
2018-08-03T01:26:28.787Z,4.50
2018-08-03T01:28:56.433Z,4.43
2018-08-03T01:31:24.768Z,5.03
2018-08-03T01:33:52.427Z,5.87
2018-08-03T01:36:20.134Z,5.33
2018-08-03T01:38:47.836Z,6.00
2018-08-03T01:41:15.481Z,4.03
2018-08-03T01:43:43.141Z,5.03
2018-08-03T01:46:10.912Z,5.50
2018-08-03T01:48:38.938Z,5.63
2018-08-03T01:51:06.738Z,5.70
2018-08-03T01:53:34.773Z,5.50
2018-08-03T01:56:02.513Z,5.90
2018-08-03T01:58:30.201Z,6.37
2018-08-03T02:00:57.898Z,5.33
2018-08-03T02:03:25.677Z,5.13
2018-08-03T02:05:53.722Z,4.50
2018-08-03T02:08:21.376Z,4.83
2018-08-03T02:10:49.075Z,4.87
2018-08-03T02:13:17.315Z,6.60
2018-08-03T02:15:45.408Z,5.60
2018-08-03T02:18:13.094Z,5.60
2018-08-03T02:20:41.003Z,5.37
2018-08-03T02:23:08.962Z,5.93
2018-08-03T02:25:36.689Z,6.57
2018-08-03T02:28:04.354Z,6.10
2018-08-03T02:30:32.040Z,5.83
2018-08-03T02:32:59.704Z,5.50
2018-08-03T02:35:28.063Z,4.63
2018-08-03T02:37:55.733Z,5.10
2018-08-03T02:40:24.017Z,5.73
2018-08-03T02:42:51.981Z,6.17
2018-08-03T02:45:19.880Z,6.50
2018-08-03T02:47:47.534Z,5.20
2018-08-03T02:50:15.261Z,4.63
2018-08-03T02:52:42.910Z,5.40
2018-08-03T02:55:10.894Z,5.30
2018-08-03T02:57:38.772Z,5.30
2018-08-03T03:00:06.929Z,4.90
2018-08-03T03:02:34.928Z,5.57
2018-08-03T03:05:03.305Z,5.00
2018-08-03T03:07:31.565Z,4.17
2018-08-03T03:09:59.529Z,4.60
2018-08-03T03:12:27.669Z,4.73
2018-08-03T03:14:55.876Z,5.30
2018-08-03T03:17:23.829Z,4.93
2018-08-03T03:19:51.463Z,5.07
2018-08-03T03:22:19.135Z,5.87
2018-08-03T03:24:47.002Z,6.90
2018-08-03T03:27:14.630Z,5.30
2018-08-03T03:29:42.356Z,4.80
2018-08-03T03:32:10.335Z,4.47
2018-08-03T03:34:38.085Z,6.10
2018-08-03T03:37:06.024Z,6.30
2018-08-03T03:39:33.681Z,6.20
2018-08-03T03:42:01.373Z,5.80
2018-08-03T03:44:29.075Z,5.30
2018-08-03T03:46:56.741Z,6.30
2018-08-03T03:49:24.438Z,6.00
2018-08-03T03:51:52.095Z,6.73
2018-08-03T03:54:19.830Z,6.10
2018-08-03T03:56:48.231Z,5.90
2018-08-03T03:59:16.160Z,6.47
2018-08-03T04:01:43.833Z,5.77
2018-08-03T04:04:11.478Z,6.97
2018-08-03T04:06:39.313Z,5.90
2018-08-03T04:09:10.083Z,5.00
2018-08-03T04:11:37.943Z,4.83
2018-08-03T04:14:05.591Z,4.40
2018-08-03T04:16:33.362Z,4.20
2018-08-03T04:19:01.123Z,4.40
2018-08-03T04:21:29.088Z,5.47
2018-08-03T04:24:01.045Z,4.83
2018-08-03T04:26:28.766Z,4.53
2018-08-03T04:28:56.607Z,5.00
2018-08-03T04:31:25.024Z,5.53
2018-08-03T04:33:52.914Z,4.37
2018-08-03T04:36:20.641Z,5.23
2018-08-03T04:38:48.366Z,5.10
2018-08-03T04:41:16.046Z,5.20
2018-08-03T04:43:43.732Z,5.90
2018-08-03T04:46:11.397Z,5.87
2018-08-03T04:48:39.155Z,6.17
2018-08-03T04:51:07.244Z,5.97
2018-08-03T04:53:34.948Z,7.37
2018-08-03T04:56:03.198Z,5.47
2018-08-03T04:58:31.197Z,5.13
2018-08-03T05:00:59.242Z,4.90
2018-08-03T05:03:26.957Z,5.73
2018-08-03T05:05:54.979Z,5.40
2018-08-03T05:08:23.633Z,5.60
2018-08-03T05:10:51.313Z,6.80
2018-08-03T05:13:19.237Z,5.77
2018-08-03T05:15:47.086Z,5.20
2018-08-03T05:18:26.118Z,5.53
2018-08-03T05:20:54.950Z,5.97
2018-08-03T05:23:22.578Z,6.37
2018-08-03T05:25:50.498Z,5.70
2018-08-03T05:28:18.522Z,6.47
2018-08-03T05:30:46.193Z,6.90
2018-08-03T05:33:14.209Z,6.43
2018-08-03T05:35:42.093Z,6.63
2018-08-03T05:38:09.761Z,7.00
2018-08-03T05:40:37.446Z,7.07
2018-08-03T05:43:05.064Z,6.47
2018-08-03T05:45:32.736Z,5.53
2018-08-03T05:48:00.418Z,6.10
2018-08-03T05:50:29.419Z,5.67
2018-08-03T05:52:57.109Z,6.30
2018-08-03T05:55:24.824Z,7.20
2018-08-03T05:57:53.122Z,7.17
2018-08-03T06:00:21.172Z,7.67
2018-08-03T06:02:51.333Z,5.67
2018-08-03T06:05:19.516Z,5.97
2018-08-03T06:07:48.329Z,6.70
2018-08-03T06:10:16.234Z,6.20
2018-08-03T06:12:43.881Z,5.80
2018-08-03T06:15:12.680Z,6.13
2018-08-03T06:17:40.452Z,7.23
2018-08-03T06:20:10.498Z,6.27
2018-08-03T06:22:38.496Z,6.40
2018-08-03T06:25:07.246Z,5.60
2018-08-03T06:27:34.934Z,5.60
2018-08-03T06:30:02.933Z,5.57
2018-08-03T06:32:30.831Z,5.97
2018-08-03T06:34:58.639Z,4.57
2018-08-03T06:37:26.297Z,6.13
2018-08-03T06:39:54.267Z,5.27
2018-08-03T06:42:21.978Z,6.10
2018-08-03T06:44:49.662Z,5.27
2018-08-03T06:47:17.313Z,6.23
2018-08-03T06:49:44.961Z,6.90
2018-08-03T06:52:12.636Z,6.00
2018-08-03T06:54:40.313Z,5.87
2018-08-03T06:57:08.840Z,4.20
2018-08-03T06:59:36.817Z,5.00
2018-08-03T07:02:04.753Z,6.10
2018-08-03T07:04:32.930Z,5.47
2018-08-03T07:07:01.670Z,3.87
2018-08-03T07:09:29.761Z,4.30
2018-08-03T07:11:57.448Z,4.00
2018-08-03T07:14:25.362Z,3.37
2018-08-03T07:16:53.018Z,4.77
2018-08-03T07:19:20.939Z,3.67
2018-08-03T07:21:48.577Z,5.80
2018-08-03T07:24:16.713Z,5.33
2018-08-03T07:26:44.396Z,4.73
2018-08-03T07:29:12.400Z,4.80
2018-08-03T07:31:40.126Z,4.20
2018-08-03T07:34:07.861Z,4.20
2018-08-03T07:36:35.966Z,4.80
2018-08-03T07:39:05.126Z,4.63
2018-08-03T07:41:32.875Z,3.80
2018-08-03T07:44:00.603Z,3.80
2018-08-03T07:46:28.356Z,3.67
2018-08-03T07:48:55.972Z,4.87
2018-08-03T07:51:24.061Z,3.83
2018-08-03T07:53:51.753Z,4.00
2018-08-03T07:56:19.430Z,3.97
2018-08-03T07:58:47.344Z,4.70
2018-08-03T08:01:15.335Z,4.10
2018-08-03T08:03:43.268Z,4.27
2018-08-03T08:06:11.230Z,4.20
2018-08-03T08:08:38.845Z,3.40
2018-08-03T08:11:06.863Z,4.90
2018-08-03T08:13:37.432Z,4.90
2018-08-03T08:16:05.494Z,5.00
2018-08-03T08:18:33.705Z,3.70
2018-08-03T08:21:01.632Z,4.33
2018-08-03T08:23:29.533Z,3.97
2018-08-03T08:25:57.533Z,3.63
2018-08-03T08:28:25.273Z,4.13
2018-08-03T08:30:52.920Z,3.57
2018-08-03T08:33:20.608Z,4.93
2018-08-03T08:35:48.354Z,3.97
2018-08-03T08:38:16.084Z,4.13
2018-08-03T08:40:43.729Z,4.33
2018-08-03T08:43:11.441Z,4.10
2018-08-03T08:45:39.743Z,4.37
2018-08-03T08:48:07.717Z,3.93
2018-08-03T08:50:36.060Z,4.47
2018-08-03T08:53:03.726Z,4.77
2018-08-03T08:55:31.500Z,4.60
2018-08-03T08:57:59.153Z,4.00
2018-08-03T09:00:26.924Z,4.07
2018-08-03T09:02:54.924Z,6.17
2018-08-03T09:05:22.661Z,4.53
2018-08-03T09:07:50.543Z,4.00
2018-08-03T09:10:18.774Z,5.10
2018-08-03T09:12:46.526Z,5.00
2018-08-03T09:15:14.229Z,4.90
2018-08-03T09:17:42.248Z,5.27
2018-08-03T09:20:10.195Z,5.27
2018-08-03T09:22:37.914Z,4.70
2018-08-03T09:25:05.752Z,6.40
2018-08-03T09:27:33.474Z,5.93
2018-08-03T09:30:01.381Z,5.83
2018-08-03T09:32:29.364Z,6.10
2018-08-03T09:34:57.543Z,5.80
2018-08-03T09:37:25.807Z,5.47
2018-08-03T09:39:53.910Z,6.20
2018-08-03T09:42:21.934Z,5.73
2018-08-03T09:44:49.637Z,5.30
2018-08-03T09:47:17.537Z,5.97
2018-08-03T09:49:45.240Z,5.80
2018-08-03T09:52:13.506Z,5.90
2018-08-03T09:54:41.805Z,6.17
2018-08-03T09:57:09.514Z,5.67
2018-08-03T09:59:37.467Z,5.60
2018-08-03T10:02:05.143Z,5.63
2018-08-03T10:04:32.869Z,6.23
2018-08-03T10:07:00.580Z,6.27
2018-08-03T10:09:28.420Z,6.40
2018-08-03T10:11:56.581Z,7.00
2018-08-03T10:14:24.590Z,6.90
2018-08-03T10:16:52.342Z,6.63
2018-08-03T10:19:20.435Z,7.17
2018-08-03T10:21:48.124Z,7.10
2018-08-03T10:24:16.133Z,7.47
2018-08-03T10:26:43.792Z,7.97
2018-08-03T10:29:11.475Z,7.50
2018-08-03T10:31:40.160Z,7.70
2018-08-03T10:34:07.881Z,7.30
2018-08-03T10:36:35.645Z,6.70
2018-08-03T10:39:05.086Z,7.70
2018-08-03T10:41:32.764Z,8.37
2018-08-03T10:44:00.473Z,8.33
2018-08-03T10:46:28.349Z,6.80
2018-08-03T10:48:55.976Z,6.10
2018-08-03T10:51:23.687Z,7.20
2018-08-03T10:53:51.423Z,7.00
2018-08-03T10:56:19.312Z,6.50
2018-08-03T10:58:47.012Z,6.63
2018-08-03T11:01:15.083Z,7.77
2018-08-03T11:03:44.200Z,7.77
2018-08-03T11:06:11.828Z,6.83
2018-08-03T11:08:39.602Z,6.93
2018-08-03T11:11:07.265Z,7.07
2018-08-03T11:13:35.204Z,6.63
2018-08-03T11:16:03.101Z,7.20
2018-08-03T11:18:31.011Z,6.67
2018-08-03T11:20:59.304Z,6.67
2018-08-03T11:23:28.013Z,6.73
2018-08-03T11:25:55.821Z,6.83
2018-08-03T11:28:24.332Z,6.73
2018-08-03T11:30:52.095Z,6.97
2018-08-03T11:33:19.819Z,5.90
2018-08-03T11:35:48.030Z,5.87
2018-08-03T11:38:15.719Z,7.77
2018-08-03T11:40:43.536Z,6.37
2018-08-03T11:43:11.189Z,6.80
2018-08-03T11:45:39.217Z,5.80
2018-08-03T11:48:07.431Z,6.40
2018-08-03T11:50:35.095Z,6.43
2018-08-03T11:53:03.157Z,5.53
2018-08-03T11:55:30.849Z,5.97
2018-08-03T11:57:59.289Z,5.90
2018-08-03T12:00:27.248Z,5.57
2018-08-03T12:02:55.484Z,6.00
2018-08-03T12:05:23.843Z,5.90
2018-08-03T12:07:51.492Z,5.50
2018-08-03T12:10:19.702Z,5.37
2018-08-03T12:12:48.044Z,5.70
2018-08-03T12:15:16.060Z,6.40
2018-08-03T12:17:43.703Z,5.07
2018-08-03T12:20:11.397Z,6.30
2018-08-03T12:22:39.057Z,4.90
2018-08-03T12:25:06.731Z,6.00
2018-08-03T12:27:34.439Z,5.73
2018-08-03T12:30:02.353Z,5.40
2018-08-03T12:32:30.616Z,4.83
2018-08-03T12:34:58.310Z,5.13
2018-08-03T12:37:25.961Z,5.23
2018-08-03T12:39:53.579Z,4.77
2018-08-03T12:42:21.625Z,5.07
2018-08-03T12:44:49.269Z,4.90
2018-08-03T12:47:16.909Z,4.70
2018-08-03T12:49:44.601Z,4.70
2018-08-03T12:52:12.298Z,4.30
2018-08-03T12:54:39.925Z,4.33
2018-08-03T12:57:07.892Z,4.80
2018-08-03T12:59:35.930Z,3.87
2018-08-03T13:02:03.548Z,4.10
2018-08-03T13:04:31.189Z,4.50
2018-08-03T13:06:58.853Z,4.07
2018-08-03T13:09:26.835Z,4.53
2018-08-03T13:11:54.518Z,4.27
2018-08-03T13:14:22.452Z,4.40
2018-08-03T13:16:50.180Z,3.60
2018-08-03T13:19:17.856Z,4.40
2018-08-03T13:21:45.514Z,4.80
2018-08-03T13:24:13.180Z,3.90
2018-08-03T13:26:40.801Z,4.17
2018-08-03T13:29:08.750Z,4.70
2018-08-03T13:31:36.417Z,3.90
2018-08-03T13:34:04.065Z,3.97
2018-08-03T13:36:32.076Z,3.90
2018-08-03T13:38:59.767Z,4.20
2018-08-03T13:41:27.471Z,3.80
2018-08-03T13:43:55.410Z,4.77
2018-08-03T13:46:23.065Z,4.00
2018-08-03T13:48:50.826Z,3.53
2018-08-03T13:51:19.147Z,3.57
2018-08-03T13:53:47.358Z,4.00
2018-08-03T13:56:15.780Z,3.70
2018-08-03T13:58:44.372Z,3.53
2018-08-03T14:01:23.441Z,3.67
2018-08-03T14:03:51.465Z,3.70
2018-08-03T14:06:19.515Z,3.40
2018-08-03T14:08:48.273Z,3.20
2018-08-03T14:11:16.948Z,3.07
2018-08-03T14:13:45.048Z,3.53
2018-08-03T14:16:13.090Z,3.37
2018-08-03T14:18:41.440Z,3.50
2018-08-03T14:21:09.415Z,3.03
2018-08-03T14:23:37.050Z,3.00
2018-08-03T14:26:04.957Z,3.33
2018-08-03T14:28:32.681Z,3.20
2018-08-03T14:31:00.353Z,3.20
2018-08-03T14:33:28.262Z,3.80
2018-08-03T14:35:56.510Z,3.53
2018-08-03T14:38:24.619Z,3.60
2018-08-03T14:40:52.285Z,3.63
2018-08-03T14:43:20.013Z,3.30
2018-08-03T14:45:47.682Z,3.23
2018-08-03T14:48:15.349Z,2.43
2018-08-03T14:50:43.072Z,2.80
2018-08-03T14:53:10.769Z,2.60
2018-08-03T14:55:38.447Z,2.80
2018-08-03T14:58:06.162Z,3.00
2018-08-03T15:00:33.800Z,2.60
2018-08-03T15:03:02.005Z,2.43
2018-08-03T15:05:30.257Z,3.27
2018-08-03T15:07:57.894Z,2.57
2018-08-03T15:10:25.706Z,2.80
2018-08-03T15:12:53.413Z,3.33
2018-08-03T15:15:21.079Z,3.30
2018-08-03T15:17:48.783Z,3.23
2018-08-03T15:20:16.465Z,2.73
2018-08-03T15:22:44.433Z,2.80
2018-08-03T15:25:12.513Z,2.80
2018-08-03T15:27:40.160Z,2.63
2018-08-03T15:30:09.153Z,3.23
2018-08-03T15:32:36.846Z,2.87
2018-08-03T15:35:05.124Z,3.00
2018-08-03T15:37:32.833Z,2.60
2018-08-03T15:40:00.551Z,2.97
2018-08-03T15:42:28.593Z,2.73
2018-08-03T15:44:56.400Z,2.67
2018-08-03T15:47:24.256Z,2.70
2018-08-03T15:49:51.964Z,2.87
2018-08-03T15:52:19.889Z,2.63
2018-08-03T15:54:47.905Z,2.70
2018-08-03T15:57:15.893Z,2.47
2018-08-03T15:59:43.686Z,2.80
2018-08-03T16:02:11.327Z,2.87
2018-08-03T16:04:39.040Z,2.30
2018-08-03T16:07:06.698Z,2.87
2018-08-03T16:09:34.665Z,2.80
2018-08-03T16:12:02.360Z,2.80
2018-08-03T16:14:30.019Z,2.43
2018-08-03T16:16:57.646Z,2.90
2018-08-03T16:19:25.885Z,2.30
2018-08-03T16:21:53.859Z,2.50
2018-08-03T16:24:21.523Z,2.30
2018-08-03T16:26:49.496Z,2.60
2018-08-03T16:29:17.280Z,2.67
2018-08-03T16:31:45.237Z,2.77
2018-08-03T16:34:13.110Z,2.53
2018-08-03T16:36:41.530Z,2.30
2018-08-03T16:39:10.251Z,2.30
2018-08-03T16:41:38.461Z,2.67
2018-08-03T16:44:06.151Z,3.03
2018-08-03T16:46:34.373Z,2.70
2018-08-03T16:49:02.139Z,2.77
2018-08-03T16:51:30.121Z,2.60
2018-08-03T16:53:57.915Z,2.60
2018-08-03T16:56:25.634Z,2.53
2018-08-03T16:58:53.427Z,2.73
2018-08-03T17:01:21.108Z,2.97
2018-08-03T17:03:48.872Z,2.30
2018-08-03T17:06:16.563Z,2.53
2018-08-03T17:08:45.026Z,2.37
2018-08-03T17:11:13.021Z,2.30
2018-08-03T17:13:40.924Z,2.40
2018-08-03T17:16:09.011Z,2.40
2018-08-03T17:18:37.523Z,2.13
2018-08-03T17:21:05.433Z,2.20
2018-08-03T17:23:33.673Z,2.80
2018-08-03T17:26:01.586Z,2.30
2018-08-03T17:28:29.324Z,2.37
2018-08-03T17:30:56.978Z,2.30
2018-08-03T17:33:24.889Z,1.90
2018-08-03T17:35:52.893Z,2.40
2018-08-03T17:38:20.546Z,2.10
2018-08-03T17:40:48.206Z,2.27
2018-08-03T17:43:15.886Z,2.40
2018-08-03T17:45:44.093Z,1.70
2018-08-03T17:48:12.385Z,2.57
2018-08-03T17:50:40.111Z,2.10
2018-08-03T17:53:07.818Z,2.20
2018-08-03T17:55:35.982Z,2.20
2018-08-03T17:58:03.971Z,2.70
2018-08-03T18:00:31.655Z,2.10
2018-08-03T18:02:59.981Z,1.90
2018-08-03T18:05:27.619Z,2.33
2018-08-03T18:07:55.348Z,2.33
2018-08-03T18:10:23.040Z,1.97
2018-08-03T18:12:50.707Z,1.87
2018-08-03T18:15:18.753Z,1.80
2018-08-03T18:17:46.429Z,1.87
2018-08-03T18:20:14.384Z,2.20
2018-08-03T18:22:42.334Z,2.10
2018-08-03T18:25:09.988Z,2.20
2018-08-03T18:27:37.996Z,2.20
2018-08-03T18:30:07.016Z,2.20
2018-08-03T18:32:34.657Z,1.93
2018-08-03T18:35:02.323Z,1.70
2018-08-03T18:37:30.017Z,2.40
2018-08-03T18:39:57.658Z,2.03
2018-08-03T18:42:25.716Z,2.30
2018-08-03T18:44:53.812Z,1.97
2018-08-03T18:47:21.788Z,2.13
2018-08-03T18:49:49.517Z,2.30
2018-08-03T18:52:17.500Z,2.17
2018-08-03T18:54:45.718Z,2.00
2018-08-03T18:57:13.337Z,2.10
2018-08-03T18:59:40.978Z,2.10
2018-08-03T19:02:08.706Z,2.20
2018-08-03T19:04:36.349Z,1.67
2018-08-03T19:07:04.027Z,1.87
2018-08-03T19:09:31.716Z,2.03
2018-08-03T19:11:59.765Z,1.90
2018-08-03T19:14:27.666Z,1.77
2018-08-03T19:16:55.330Z,2.10
2018-08-03T19:19:23.047Z,2.10
2018-08-03T19:21:50.830Z,2.20
2018-08-03T19:24:18.419Z,1.90
2018-08-03T19:26:46.334Z,1.77
2018-08-03T19:29:14.289Z,1.90
2018-08-03T19:31:41.922Z,1.90
2018-08-03T19:34:09.526Z,1.90
2018-08-03T19:36:37.497Z,2.10
2018-08-03T19:39:08.179Z,1.80
2018-08-03T19:41:36.106Z,2.00
2018-08-03T19:44:04.120Z,1.90
2018-08-03T19:46:32.086Z,2.00
2018-08-03T19:48:59.769Z,1.90
2018-08-03T19:51:27.429Z,2.13
2018-08-03T19:53:55.463Z,1.97
2018-08-03T19:56:23.507Z,1.73
2018-08-03T19:58:51.279Z,1.73
2018-08-03T20:01:18.925Z,1.70
2018-08-03T20:03:47.090Z,1.67
2018-08-03T20:06:15.157Z,1.70
2018-08-03T20:08:42.842Z,2.00
2018-08-03T20:11:10.562Z,1.87
2018-08-03T20:13:38.577Z,1.80
2018-08-03T20:16:06.561Z,1.60
2018-08-03T20:18:34.277Z,1.60
2018-08-03T20:21:02.006Z,1.83
2018-08-03T20:23:29.791Z,1.90
2018-08-03T20:25:58.090Z,1.80
2018-08-03T20:28:25.980Z,1.70
2018-08-03T20:30:53.989Z,1.87
2018-08-03T20:33:21.678Z,2.20
2018-08-03T20:35:49.330Z,1.80
2018-08-03T20:38:16.994Z,1.70
2018-08-03T20:40:44.661Z,2.07
2018-08-03T20:43:12.313Z,1.70
2018-08-03T20:45:40.347Z,2.20
2018-08-03T20:48:08.022Z,1.77
2018-08-03T20:50:36.238Z,1.60
2018-08-03T20:53:03.922Z,2.93
2018-08-03T20:55:31.675Z,2.70
2018-08-03T20:57:59.355Z,3.90
2018-08-03T21:00:27.298Z,2.90
2018-08-03T21:02:55.097Z,2.83
2018-08-03T21:05:22.800Z,3.33
2018-08-03T21:07:51.893Z,3.80
2018-08-03T21:10:19.748Z,3.40
2018-08-03T21:12:47.592Z,3.60
2018-08-03T21:15:15.413Z,4.63
2018-08-03T21:17:43.457Z,4.80
2018-08-03T21:20:12.713Z,3.87
2018-08-03T21:22:41.459Z,4.67
2018-08-03T21:25:09.551Z,5.50
2018-08-03T21:27:38.102Z,4.50
2018-08-03T21:30:07.948Z,3.93
2018-08-03T21:32:36.607Z,5.07
2018-08-03T21:35:04.964Z,4.63
2018-08-03T21:37:33.543Z,4.80
2018-08-03T21:40:01.896Z,5.43
2018-08-03T21:42:30.716Z,6.37
2018-08-03T21:44:59.020Z,7.70
2018-08-03T21:47:27.528Z,6.93
2018-08-03T21:49:55.925Z,5.93
2018-08-03T21:52:24.729Z,5.70
2018-08-03T21:54:53.585Z,5.90
2018-08-03T21:57:21.950Z,5.93
2018-08-03T21:59:50.115Z,6.00
2018-08-03T22:02:18.432Z,5.90
2018-08-03T22:04:46.432Z,6.10
2018-08-03T22:07:14.785Z,5.03
2018-08-03T22:09:42.936Z,5.53
2018-08-03T22:12:10.672Z,4.90
2018-08-03T22:14:38.409Z,5.27
2018-08-03T22:17:06.262Z,3.90
2018-08-03T22:19:34.499Z,3.43
2018-08-03T22:22:02.213Z,3.53
2018-08-03T22:24:29.901Z,4.13
2018-08-03T22:26:57.520Z,3.60
2018-08-03T22:29:25.762Z,3.50
2018-08-03T22:31:53.489Z,2.90
2018-08-03T22:34:21.479Z,3.13
2018-08-03T22:36:49.494Z,2.97
2018-08-03T22:39:17.849Z,3.10
2018-08-03T22:41:45.586Z,3.17
2018-08-03T22:44:13.235Z,2.73
2018-08-03T22:46:41.806Z,3.00
2018-08-03T22:49:10.111Z,3.03
2018-08-03T22:51:38.558Z,2.73
2018-08-03T22:54:06.948Z,3.07
2018-08-03T22:56:34.726Z,2.70
2018-08-03T22:59:03.038Z,3.53
2018-08-03T23:01:31.378Z,3.43
2018-08-03T23:03:59.830Z,3.67
2018-08-03T23:06:28.199Z,2.90
2018-08-03T23:08:56.654Z,3.40
2018-08-03T23:11:24.749Z,3.43
2018-08-03T23:13:53.145Z,3.23
2018-08-03T23:16:21.593Z,3.47
2018-08-03T23:18:49.854Z,3.37
2018-08-03T23:21:18.269Z,3.20
2018-08-03T23:23:46.068Z,3.23
2018-08-03T23:26:14.210Z,3.47
2018-08-03T23:28:41.921Z,3.70
2018-08-03T23:31:10.246Z,3.10
2018-08-03T23:33:38.089Z,3.37
2018-08-03T23:36:06.000Z,3.70
2018-08-03T23:38:33.783Z,3.23
2018-08-03T23:41:02.097Z,2.90
2018-08-03T23:43:30.221Z,3.20
2018-08-03T23:45:58.466Z,3.03
2018-08-03T23:48:26.407Z,3.97
2018-08-03T23:50:54.124Z,4.70
2018-08-03T23:53:22.444Z,3.40
2018-08-03T23:55:50.762Z,3.07
2018-08-03T23:58:19.076Z,3.80
